This demonstration page uses our WeatherBlox Daily Observations layout. Learn more.

36.17497, -115.13722

Hourly Observations for February 6, 2018

Temp ( °F °C ) Dew Point ( °F °C ) Humidity (%) Winds ( mph kmh ) Pressure ( in mb ) Visibility ( mi km ) Precip ( " mm )
12:53 am 00:53 Clear 60 15.6 22 -5.6 23 23 NNW 6 9 29.91 1013 10 16.0934 0 0
1:53 am 01:53 Clear 62 16.7 22 -5.6 21 21 NNW 16 26 29.91 1013 10 16.0934 0 0
2:53 am 02:53 Clear 59 15 23 -5 25 25 N 13 20 29.93 1014 10 16.0934 0 0
3:53 am 03:53 Clear 59 15 24 -4.4 26 26 N 14 22 29.94 1014 10 16.0934 0 0
4:53 am 04:53 Clear 60 15.6 23 -5 24 24 VRB 3 6 29.96 1015 10 16.0934 0 0
5:53 am 05:53 Clear 56 13.3 23 -5 28 28 WNW 10 17 30 1016 10 16.0934 0 0
6:53 am 06:53 Sunny 56 13.3 23 -5 28 28 N 6 9 30.04 1017 10 16.0934 0 0
7:53 am 07:53 Sunny 59 15 23 -5 25 25 N 16 26 30.06 1018 10 16.0934 0 0
8:53 am 08:53 Sunny 63 17.2 23 -5 22 22 NNW 16 26 30.07 1018 10 16.0934 0 0
9:53 am 09:53 Sunny 67 19.4 21 -6.1 17 17 N 17 28 30.09 1019 10 16.0934 0 0
10:53 am 10:53 Sunny 68 20 21 -6.1 17 17 NNW 22 35 30.11 1020 10 16.0934 0 0
11:53 am 11:53 Sunny 69 20.6 20 -6.7 15 15 NNW 21 33 30.11 1020 10 16.0934 0 0
12:53 pm 12:53 Sunny 70 21.1 17 -8.3 13 13 NNW 22 35 30.1 1019 10 16.0934 0 0
1:53 pm 13:53 Sunny 71 21.7 17 -8.3 13 13 N 17 28 30.1 1019 10 16.0934 0 0
2:53 pm 14:53 Sunny 71 21.7 14 -10 11 11 NNW 16 26 30.11 1020 10 16.0934 0 0
3:53 pm 15:53 Sunny 71 21.7 13 -10.6 10 10 NNW 10 17 30.1 1019 10 16.0934 0 0
4:53 pm 16:53 Sunny 69 20.6 10 -12.2 10 10 N 9 15 30.12 1020 10 16.0934 0 0
5:53 pm 17:53 Clear 65 18.3 11 -11.7 12 12 NNE 6 9 30.15 1021 10 16.0934 0 0
6:53 pm 18:53 Clear 64 17.8 10 -12.2 12 12 N 6 9 30.19 1022 10 16.0934 0 0
7:53 pm 19:53 Clear 60 15.6 11 -11.7 14 14 N 7 11 30.21 1023 10 16.0934 0 0
8:53 pm 20:53 Clear 58 14.4 12 -11.1 16 16 E 6 9 30.24 1024 10 16.0934 0 0
9:53 pm 21:53 Clear 58 14.4 12 -11.1 16 16 NNE 8 13 30.25 1024 10 16.0934 0 0
10:53 pm 22:53 Clear 57 13.9 13 -10.6 17 17 VRB 5 7 30.28 1025 10 16.0934 0 0
11:53 pm 23:53 Clear 55 12.8 13 -10.6 19 19 NNW 3 6 30.3 1026 10 16.0934 0 0

Powered by AerisWeather